Saginaw Browne, MI

6:58 AM EDT on September 24, 2017 (GMT -0400)
Saginaw County-Browne

Weather History for KHYX - October, 2011

Change the Weather History Date:

Sunday, October 2, 2011

  Actual Average (KMBS) Record (KMBS)
Temperature  
Mean Temperature 48 °F -  
Max Temperature 62 °F 64 °F 82 °F (2005)
Min Temperature 35 °F 41 °F 30 °F (2003)
Degree Days  
Heating Degree Days 16    
Moisture  
Dew Point 34 °F    
Average Humidity 66    
Maximum Humidity 93    
Minimum Humidity 30    
Precipitation  
Precipitation 0.00 in - - ()
Sea Level Pressure  
Sea Level Pressure 30.15 in    
Wind  
Wind Speed 8 mph (NNW)    
Max Wind Speed 15 mph    
Max Gust Speed 22 mph    
Visibility 10 miles    
Events      
Averages and records for this station are not official NWS values.
T = Trace of Precipitation, MM = Missing Value Source: NWS Daily Summary

Daily Weather History Graph

Daily Weather History Graph

Search for Another Location

Airport or City:

Trip Planner

Search our weather history database for the weather conditions in past years. The results will help you decide how hot, cold, wet, or windy it might be!

Date:

Astronomy

Oct. 02, 2011 Rise Set
Actual Time 7:33 AM EDT 7:15 PM EDT
Civil Twilight 7:05 AM EDT 7:43 PM EDT
Nautical Twilight 6:32 AM EDT 8:16 PM EDT
Astronomical Twilight 5:58 AM EDT 8:50 PM EDT
Moon 1:49 PM EDT (10/2) 11:02 PM EDT (10/2)
Length of Visible Light 12h 38m
Length of Day
11h 41m
Waxing Crescent, 34% of the Moon is Illuminated
Oct 2
Waxing Crescent
Oct 3
First Quarter
Oct 11
Full
Oct 19
Last Quarter
Oct 26
New

Hourly Weather History & Observations

Time (EDT) Temp. Windchill Dew Point Humidity Pressure Visibility Wind Dir Wind Speed Gust Speed Precip Events Conditions
12:11 AM 41.0 °F 37.1 °F 33.8 °F 76% 30.20 in 10.0 mi NNW 5.8 mph - N/A   Clear
12:31 AM 37.4 °F 33.8 °F 33.8 °F 87% 30.19 in 10.0 mi WNW 4.6 mph - N/A   Clear
12:51 AM 37.4 °F 32.1 °F 33.8 °F 87% 30.20 in 10.0 mi NW 6.9 mph - N/A   Clear
1:11 AM 37.4 °F 31.4 °F 32.0 °F 81% 30.20 in 10.0 mi NW 8.1 mph - N/A   Clear
1:52 AM 37.4 °F 31.4 °F 32.0 °F 81% 30.19 in 10.0 mi NW 8.1 mph - N/A   Clear
2:12 AM 37.4 °F 31.4 °F 32.0 °F 81% 30.19 in 10.0 mi NW 8.1 mph - N/A   Clear
2:32 AM 37.4 °F 30.8 °F 33.8 °F 87% 30.19 in 10.0 mi NW 9.2 mph - N/A   Clear
2:52 AM 37.4 °F 31.4 °F 33.8 °F 87% 30.19 in 10.0 mi NW 8.1 mph - N/A   Clear
3:12 AM 37.4 °F 31.4 °F 33.8 °F 87% 30.19 in 10.0 mi NW 8.1 mph - N/A   Clear
3:32 AM 37.4 °F 31.4 °F 33.8 °F 87% 30.18 in 10.0 mi NW 8.1 mph - N/A   Clear
3:52 AM 37.4 °F 31.4 °F 33.8 °F 87% 30.18 in 10.0 mi NW 8.1 mph - N/A   Clear
4:12 AM 37.4 °F 32.1 °F 33.8 °F 87% 30.18 in 10.0 mi WNW 6.9 mph - N/A   Clear
4:32 AM 37.4 °F 31.4 °F 33.8 °F 87% 30.17 in 10.0 mi NW 8.1 mph - N/A   Clear
4:52 AM 37.4 °F 31.4 °F 33.8 °F 87% 30.17 in 10.0 mi NW 8.1 mph - N/A   Clear
5:13 AM 35.6 °F 29.2 °F 33.8 °F 93% 30.18 in 10.0 mi NW 8.1 mph - N/A   Clear
5:33 AM 37.4 °F 31.4 °F 33.8 °F 87% 30.17 in 10.0 mi NW 8.1 mph - N/A   Clear
5:53 AM 37.4 °F 31.4 °F 33.8 °F 87% 30.17 in 10.0 mi NW 8.1 mph - N/A   Clear
6:13 AM 37.4 °F 30.8 °F 33.8 °F 87% 30.17 in 10.0 mi NW 9.2 mph - N/A   Clear
6:53 AM 35.6 °F 28.6 °F 33.8 °F 93% 30.18 in 10.0 mi WNW 9.2 mph - N/A   Clear
7:13 AM 35.6 °F 28.6 °F 33.8 °F 93% 30.18 in 10.0 mi WNW 9.2 mph - N/A   Clear
7:33 AM 35.6 °F 28.6 °F 33.8 °F 93% 30.18 in 10.0 mi NW 9.2 mph - N/A   Clear
7:54 AM 35.6 °F 28.6 °F 33.8 °F 93% 30.19 in 10.0 mi NW 9.2 mph - N/A   Clear
8:14 AM 37.4 °F 29.8 °F 33.8 °F 87% 30.19 in 10.0 mi NW 11.5 mph - N/A   Clear
8:34 AM 37.4 °F 28.9 °F 35.6 °F 93% 30.18 in 10.0 mi NW 13.8 mph - N/A   Clear
8:54 AM 41.0 °F 34.3 °F 35.6 °F 81% 30.19 in 10.0 mi NW 11.5 mph - N/A   Clear
9:14 AM 42.8 °F 36.6 °F 35.6 °F 76% 30.18 in 10.0 mi NNW 11.5 mph - N/A   Clear
9:34 AM 42.8 °F 37.0 °F 35.6 °F 76% 30.18 in 10.0 mi NNW 10.4 mph - N/A   Clear
9:54 AM 44.6 °F 39.2 °F 37.4 °F 76% 30.18 in 10.0 mi NNW 10.4 mph 18.4 mph N/A   Clear
10:14 AM 46.4 °F 40.7 °F 37.4 °F 71% 30.19 in 10.0 mi NNW 12.7 mph 17.3 mph N/A   Clear
10:34 AM 48.2 °F - 35.6 °F 62% 30.18 in 10.0 mi NNW 12.7 mph 18.4 mph N/A   Clear
10:54 AM 50.0 °F - 37.4 °F 62% 30.19 in 10.0 mi NNW 10.4 mph - N/A   Clear
11:15 AM 51.8 °F - 35.6 °F 54% 30.18 in 10.0 mi North 15.0 mph 18.4 mph N/A   Clear
11:35 AM 51.8 °F - 33.8 °F 50% 30.19 in 10.0 mi North 12.7 mph 17.3 mph N/A   Clear
11:55 AM 51.8 °F - 33.8 °F 50% 30.18 in 10.0 mi North 13.8 mph 19.6 mph N/A   Clear
12:10 PM 53.6 °F - 32.0 °F 44% 30.18 in 10.0 mi North 12.7 mph 17.3 mph N/A   Clear
12:30 PM 53.6 °F - 35.6 °F 51% 30.17 in 10.0 mi North 9.2 mph - N/A   Clear
12:50 PM 53.6 °F - 32.0 °F 44% 30.16 in 10.0 mi North 11.5 mph - N/A   Clear
1:10 PM 55.4 °F - 32.0 °F 41% 30.15 in 10.0 mi North 15.0 mph 18.4 mph N/A   Clear
1:30 PM 55.4 °F - 32.0 °F 41% 30.14 in 10.0 mi NNW 13.8 mph 18.4 mph N/A   Clear
1:50 PM 55.4 °F - 32.0 °F 41% 30.13 in 10.0 mi North 11.5 mph 18.4 mph N/A   Clear
2:10 PM 59.0 °F - 32.0 °F 36% 30.11 in 10.0 mi North 11.5 mph - N/A   Clear
2:51 PM 59.0 °F - 32.0 °F 36% 30.09 in 10.0 mi NW 11.5 mph 16.1 mph N/A   Clear
3:11 PM 60.8 °F - 32.0 °F 34% 30.08 in 10.0 mi NNW 13.8 mph 21.9 mph N/A   Clear
3:51 PM 60.8 °F - 30.2 °F 31% 30.07 in 10.0 mi NNW 12.7 mph 19.6 mph N/A   Clear
4:11 PM 60.8 °F - 30.2 °F 31% 30.07 in 10.0 mi North 11.5 mph 17.3 mph N/A   Clear
4:31 PM 62.6 °F - 30.2 °F 30% 30.06 in 10.0 mi North 11.5 mph 18.4 mph N/A   Clear
4:51 PM 62.6 °F - 30.2 °F 30% 30.07 in 10.0 mi North 10.4 mph 17.3 mph N/A   Clear
5:31 PM 60.8 °F - 30.2 °F 31% 30.07 in 10.0 mi NNE 10.4 mph - N/A   Clear
6:12 PM 60.8 °F - 32.0 °F 34% 30.07 in 10.0 mi North 8.1 mph - N/A   Clear
6:32 PM 59.0 °F - 32.0 °F 36% 30.07 in 10.0 mi North 5.8 mph - N/A   Clear
6:52 PM 53.6 °F - 35.6 °F 51% 30.06 in 10.0 mi NW 9.2 mph - N/A   Clear
7:12 PM 53.6 °F - 33.8 °F 47% 30.06 in 10.0 mi NW 3.5 mph - N/A   Clear
7:52 PM 51.8 °F - 33.8 °F 50% 30.07 in 10.0 mi North 4.6 mph - N/A   Clear
8:12 PM 50.0 °F - 33.8 °F 54% 30.09 in 10.0 mi NNW 5.8 mph - N/A   Clear
8:32 PM 50.0 °F - 33.8 °F 54% 30.09 in 10.0 mi North 4.6 mph - N/A   Clear
8:53 PM 50.0 °F - 35.6 °F 58% 30.10 in 10.0 mi Calm Calm - N/A   Clear
9:13 PM 46.4 °F 45.2 °F 35.6 °F 66% 30.10 in 10.0 mi East 3.5 mph - N/A   Clear
9:33 PM 44.6 °F - 37.4 °F 76% 30.11 in 10.0 mi Calm Calm - N/A   Mostly Cloudy
9:53 PM 46.4 °F - 37.4 °F 71% 30.10 in 10.0 mi Calm Calm - N/A   Overcast
10:13 PM 46.4 °F - 41.0 °F 81% 30.11 in 10.0 mi Calm Calm - N/A   Overcast
10:33 PM 50.0 °F - 39.2 °F 66% 30.11 in 10.0 mi Calm Calm - N/A   Mostly Cloudy
10:53 PM 46.4 °F 45.2 °F 37.4 °F 71% 30.11 in 10.0 mi West 3.5 mph - N/A   Scattered Clouds
11:13 PM 44.6 °F 43.1 °F 37.4 °F 76% 30.10 in 10.0 mi WNW 3.5 mph - N/A   Clear
11:33 PM 44.6 °F 42.2 °F 37.4 °F 76% 30.09 in 10.0 mi WNW 4.6 mph - N/A   Clear
11:53 PM 44.6 °F 41.4 °F 37.4 °F 76% 30.09 in 10.0 mi WNW 5.8 mph - N/A   Clear